Time;durP1;ratioP1;P1;durP2;ratioP2;P2;SDS_P1;SDS_P2;PMS_P1;PMS_P2;Temp;Humidity;BMP_temperature;BMP_pressure;BME280_temperature;BME280_humidity;BME280_pressure;Samples;Min_cycle;Max_cycle;Signal;HPM_P1;HPM_P2
2021/03/27 00:00:14;;;;;;;6.90;3.30;;;;;;;;;;5125696;27;20024;-67
2021/03/27 00:02:46;;;;;;;8.47;3.47;;;;;;;;;;5124688;27;20131;-67
2021/03/27 00:05:16;;;;;;;8.43;3.13;;;;;;;;;;5121613;27;20047;-67
2021/03/27 00:07:51;;;;;;;7.33;3.33;;;;;;;;;;5130586;27;20467;-67
2021/03/27 00:10:20;;;;;;;7.37;3.53;;;;;;;;;;5127424;27;20019;-67
2021/03/27 00:13:11;;;;;;;7.27;3.30;;;;;;;;;;5123283;27;20072;-67
2021/03/27 00:15:40;;;;;;;7.20;3.50;;;;;;;;;;5122626;27;20144;-67
2021/03/27 00:18:11;;;;;;;8.50;3.43;;;;;;;;;;5121325;27;20012;-67
2021/03/27 00:20:41;;;;;;;7.60;3.40;;;;;;;;;;5121279;27;20019;-67
2021/03/27 00:23:21;;;;;;;7.87;3.40;;;;;;;;;;5135067;27;20023;-67
2021/03/27 00:26:07;;;;;;;6.60;3.20;;;;;;;;;;5124252;27;20094;-67
2021/03/27 00:28:43;;;;;;;11.00;3.50;;;;;;;;;;5124565;27;20066;-67
2021/03/27 00:31:08;;;;;;;6.73;3.23;;;;;;;;;;5129255;27;20047;-67
2021/03/27 00:33:35;;;;;;;10.73;3.67;;;;;;;;;;5125282;27;20065;-67
2021/03/27 00:36:10;;;;;;;6.27;3.00;;;;;;;;;;5130554;27;20019;-67
2021/03/27 00:38:40;;;;;;;7.33;3.63;;;;;;;;;;5132215;27;20058;-67
2021/03/27 00:41:14;;;;;;;7.83;3.40;;;;;;;;;;5126831;27;20107;-67
2021/03/27 00:43:45;;;;;;;8.53;3.00;;;;;;;;;;5130877;27;20365;-67
2021/03/27 00:46:11;;;;;;;8.77;3.23;;;;;;;;;;5131293;27;20023;-67
2021/03/27 00:48:48;;;;;;;8.67;3.83;;;;;;;;;;5125928;27;20075;-67
2021/03/27 00:51:17;;;;;;;7.90;3.87;;;;;;;;;;5127383;27;20023;-67
2021/03/27 00:53:49;;;;;;;7.60;3.20;;;;;;;;;;5120478;27;20017;-67
2021/03/27 00:56:19;;;;;;;7.68;2.92;;;;;;;;;;5125869;27;20493;-67
2021/03/27 00:58:48;;;;;;;11.70;3.40;;;;;;;;;;5120348;27;20023;-66
2021/03/27 01:01:15;;;;;;;6.73;3.30;;;;;;;;;;5125460;27;20047;-67
2021/03/27 01:03:42;;;;;;;6.67;2.90;;;;;;;;;;5119172;27;20023;-67
2021/03/27 01:06:10;;;;;;;7.70;2.93;;;;;;;;;;5125320;27;20019;-67
2021/03/27 01:08:36;;;;;;;8.50;3.20;;;;;;;;;;5128641;27;20072;-67
2021/03/27 01:11:16;;;;;;;7.97;3.30;;;;;;;;;;5134910;27;20020;-67
2021/03/27 01:13:47;;;;;;;6.00;2.63;;;;;;;;;;5122341;27;20020;-67
2021/03/27 01:16:15;;;;;;;6.60;2.93;;;;;;;;;;5121984;27;20047;-67
2021/03/27 01:18:42;;;;;;;6.03;2.93;;;;;;;;;;5127162;27;20049;-67
2021/03/27 01:21:16;;;;;;;7.83;3.00;;;;;;;;;;5128646;27;20102;-66
2021/03/27 01:23:42;;;;;;;7.13;2.80;;;;;;;;;;5128785;27;20025;-66
2021/03/27 01:26:21;;;;;;;8.23;2.93;;;;;;;;;;5119282;27;20103;-66
2021/03/27 01:28:53;;;;;;;9.13;2.83;;;;;;;;;;5120144;27;20076;-66
2021/03/27 01:31:31;;;;;;;6.73;2.73;;;;;;;;;;5128682;27;20027;-66
2021/03/27 01:34:02;;;;;;;6.60;2.77;;;;;;;;;;5122942;27;20404;-67
2021/03/27 01:36:30;;;;;;;7.03;3.20;;;;;;;;;;5129016;27;20054;-67
2021/03/27 01:39:08;;;;;;;6.33;2.87;;;;;;;;;;5121867;27;20066;-66
2021/03/27 01:41:33;;;;;;;5.90;2.63;;;;;;;;;;5122777;27;20113;-66
2021/03/27 01:44:05;;;;;;;7.30;2.70;;;;;;;;;;5123990;27;20106;-67
2021/03/27 01:46:36;;;;;;;6.73;2.77;;;;;;;;;;5128102;27;20064;-66
2021/03/27 01:49:04;;;;;;;3.50;1.97;;;;;;;;;;5126523;27;20096;-66
2021/03/27 01:51:49;;;;;;;7.53;3.23;;;;;;;;;;5122108;27;20027;-66
2021/03/27 01:54:19;;;;;;;3.70;1.50;;;;;;;;;;5106456;27;20024;-67
2021/03/27 01:56:56;;;;;;;2.87;1.17;;;;;;;;;;5124191;27;20024;-66
2021/03/27 01:59:27;;;;;;;4.57;1.20;;;;;;;;;;5121342;27;20020;-66
2021/03/27 02:04:26;;;;;;;2.07;1.00;;;;;;;;;;5045280;28;20603;-67
2021/03/27 02:06:55;;;;;;;2.03;0.80;;;;;;;;;;5049285;28;20052;-67
2021/03/27 02:09:39;;;;;;;3.03;0.80;;;;;;;;;;5051379;28;20025;-67
2021/03/27 02:12:04;;;;;;;4.87;1.50;;;;;;;;;;5048750;28;20094;-67
2021/03/27 02:14:42;;;;;;;3.27;1.27;;;;;;;;;;5047923;28;20440;-68
2021/03/27 02:17:12;;;;;;;2.03;1.07;;;;;;;;;;5046563;28;20060;-68
2021/03/27 02:19:37;;;;;;;1.53;0.80;;;;;;;;;;5046231;28;20054;-68
2021/03/27 02:22:05;;;;;;;2.67;1.17;;;;;;;;;;5046046;28;20040;-67
2021/03/27 02:24:49;;;;;;;3.20;1.20;;;;;;;;;;5048784;28;20462;-68
2021/03/27 02:27:18;;;;;;;3.43;1.10;;;;;;;;;;5044274;28;20067;-68
2021/03/27 02:29:43;;;;;;;3.10;1.17;;;;;;;;;;5048192;28;20048;-67
2021/03/27 02:32:08;;;;;;;3.37;1.30;;;;;;;;;;5048396;28;20673;-67
2021/03/27 02:34:39;;;;;;;3.53;1.47;;;;;;;;;;5051527;28;20499;-67
2021/03/27 02:37:25;;;;;;;4.10;1.40;;;;;;;;;;5047409;28;20040;-67
2021/03/27 02:39:50;;;;;;;1.77;0.90;;;;;;;;;;5047127;28;20774;-67
2021/03/27 02:42:34;;;;;;;3.63;1.10;;;;;;;;;;5047342;28;20422;-67
2021/03/27 02:45:02;;;;;;;2.70;0.90;;;;;;;;;;5045900;28;20037;-67
2021/03/27 02:47:31;;;;;;;2.97;0.90;;;;;;;;;;5049814;28;20624;-67
2021/03/27 02:50:05;;;;;;;1.10;0.60;;;;;;;;;;5048962;28;20275;-67
2021/03/27 02:52:41;;;;;;;2.20;0.93;;;;;;;;;;5049281;28;20282;-67
2021/03/27 02:55:25;;;;;;;3.07;1.50;;;;;;;;;;5045454;28;20358;-67
2021/03/27 02:58:08;;;;;;;4.63;1.67;;;;;;;;;;5048439;28;20380;-67
2021/03/27 03:00:41;;;;;;;1.93;0.90;;;;;;;;;;5049635;28;20635;-67
2021/03/27 03:03:18;;;;;;;2.30;0.90;;;;;;;;;;5065267;28;20317;-67
2021/03/27 03:05:47;;;;;;;3.40;1.40;;;;;;;;;;5087849;28;20286;-67
2021/03/27 03:08:15;;;;;;;1.77;0.90;;;;;;;;;;5090029;28;20273;-68
2021/03/27 03:10:48;;;;;;;3.47;1.40;;;;;;;;;;5087663;28;20761;-67
2021/03/27 03:13:26;;;;;;;3.10;1.50;;;;;;;;;;5065741;28;20801;-67
2021/03/27 03:16:01;;;;;;;4.10;1.80;;;;;;;;;;5086228;28;20410;-68
2021/03/27 03:18:26;;;;;;;5.37;1.60;;;;;;;;;;5083461;28;20277;-68
2021/03/27 03:20:55;;;;;;;4.10;1.67;;;;;;;;;;5086076;28;20742;-67
2021/03/27 03:23:21;;;;;;;4.67;1.70;;;;;;;;;;5086740;28;20032;-67
2021/03/27 03:25:52;;;;;;;4.90;1.90;;;;;;;;;;5088011;28;20296;-68
2021/03/27 03:28:34;;;;;;;3.20;1.50;;;;;;;;;;5085187;28;20145;-68
2021/03/27 03:31:00;;;;;;;4.05;1.70;;;;;;;;;;5084668;28;20480;-67
2021/03/27 03:33:34;;;;;;;5.00;2.27;;;;;;;;;;5085021;28;20031;-67
2021/03/27 03:36:05;;;;;;;4.73;1.87;;;;;;;;;;5087992;28;20024;-68
2021/03/27 03:38:39;;;;;;;5.73;2.00;;;;;;;;;;5085678;28;20270;-68
2021/03/27 03:41:08;;;;;;;5.50;2.37;;;;;;;;;;5088616;28;20306;-68
2021/03/27 03:43:33;;;;;;;5.83;2.27;;;;;;;;;;5080998;28;20278;-68
2021/03/27 03:46:10;;;;;;;6.80;2.57;;;;;;;;;;5089159;28;20688;-67
2021/03/27 03:48:53;;;;;;;3.27;1.60;;;;;;;;;;5087626;28;20020;-67
2021/03/27 03:51:24;;;;;;;7.37;2.50;;;;;;;;;;5082914;28;20277;-67
2021/03/27 03:54:06;;;;;;;6.33;1.90;;;;;;;;;;5086495;28;20277;-67
2021/03/27 03:56:32;;;;;;;5.10;2.20;;;;;;;;;;5091712;28;20277;-67
2021/03/27 03:58:57;;;;;;;4.73;2.57;;;;;;;;;;5082327;28;20028;-67
2021/03/27 04:01:29;;;;;;;4.30;1.93;;;;;;;;;;5089528;28;20028;-67
2021/03/27 04:03:55;;;;;;;;;;;;;;;;;;5086134;28;20044;-67
2021/03/27 04:06:23;;;;;;;3.93;1.63;;;;;;;;;;5089431;28;20385;-67
2021/03/27 04:09:04;;;;;;;4.60;1.53;;;;;;;;;;5085627;28;20016;-68
2021/03/27 04:11:48;;;;;;;5.80;1.93;;;;;;;;;;5087469;28;20621;-67
2021/03/27 04:14:32;;;;;;;9.50;1.83;;;;;;;;;;5085717;28;20273;-67
2021/03/27 04:17:01;;;;;;;3.97;1.60;;;;;;;;;;5090406;28;20285;-67
2021/03/27 04:19:28;;;;;;;3.27;1.57;;;;;;;;;;5086496;28;20270;-67
2021/03/27 04:22:08;;;;;;;7.23;1.90;;;;;;;;;;5084801;28;20278;-67
2021/03/27 04:24:38;;;;;;;3.33;1.57;;;;;;;;;;5089287;28;20273;-67
2021/03/27 04:27:03;;;;;;;6.17;2.47;;;;;;;;;;5090961;28;20832;-67
2021/03/27 04:29:35;;;;;;;5.57;2.33;;;;;;;;;;5089410;28;20266;-67
2021/03/27 04:32:06;;;;;;;4.90;2.37;;;;;;;;;;5090553;28;20028;-68
2021/03/27 04:34:32;;;;;;;5.93;2.03;;;;;;;;;;5088489;28;20773;-68
2021/03/27 04:37:04;;;;;;;7.93;2.67;;;;;;;;;;5087194;28;20362;-68
2021/03/27 04:39:32;;;;;;;6.20;2.63;;;;;;;;;;5090589;28;20403;-67
2021/03/27 04:42:11;;;;;;;6.93;2.80;;;;;;;;;;5094471;28;20292;-68
2021/03/27 04:44:40;;;;;;;7.27;2.83;;;;;;;;;;5094459;28;20270;-67
2021/03/27 04:47:05;;;;;;;8.97;2.97;;;;;;;;;;5088549;28;20262;-67
2021/03/27 04:49:50;;;;;;;8.27;2.83;;;;;;;;;;5092282;28;20274;-67
2021/03/27 04:52:32;;;;;;;5.27;2.40;;;;;;;;;;5092271;28;20088;-67
2021/03/27 04:55:00;;;;;;;6.85;3.03;;;;;;;;;;5086531;28;20314;-68
2021/03/27 04:57:31;;;;;;;8.53;3.30;;;;;;;;;;5091538;28;20024;-68
2021/03/27 05:00:12;;;;;;;5.60;2.17;;;;;;;;;;5089519;28;20856;-67
2021/03/27 05:02:40;;;;;;;6.50;3.23;;;;;;;;;;5092029;28;20301;-67
2021/03/27 05:05:26;;;;;;;4.80;1.83;;;;;;;;;;5090145;28;20278;-67
2021/03/27 05:07:59;;;;;;;5.70;2.23;;;;;;;;;;5080142;28;20326;-67
2021/03/27 05:10:33;;;;;;;4.17;1.67;;;;;;;;;;5087259;28;20274;-67
2021/03/27 05:13:22;;;;;;;6.03;2.63;;;;;;;;;;5088089;28;20329;-67
2021/03/27 05:15:50;;;;;;;6.27;2.57;;;;;;;;;;5089701;28;20286;-67
2021/03/27 05:18:38;;;;;;;6.00;2.70;;;;;;;;;;5086737;28;20780;-67
2021/03/27 05:21:09;;;;;;;5.73;2.23;;;;;;;;;;5082449;28;20380;-67
2021/03/27 05:23:40;;;;;;;6.07;2.33;;;;;;;;;;5087407;28;20278;-68
2021/03/27 05:26:24;;;;;;;5.40;2.00;;;;;;;;;;5089244;28;20611;-67
2021/03/27 05:29:10;;;;;;;6.80;2.47;;;;;;;;;;5084879;28;20281;-68
2021/03/27 05:31:41;;;;;;;6.00;2.63;;;;;;;;;;5045769;28;20354;-68
2021/03/27 05:34:24;;;;;;;6.87;2.43;;;;;;;;;;5084331;28;20362;-68
2021/03/27 05:37:00;;;;;;;6.53;2.70;;;;;;;;;;5085129;28;20285;-68
2021/03/27 05:39:25;;;;;;;5.27;1.83;;;;;;;;;;5087441;28;20657;-68
2021/03/27 05:42:08;;;;;;;4.70;2.10;;;;;;;;;;5087298;28;20832;-68
2021/03/27 05:45:08;;;;;;;7.63;2.37;;;;;;;;;;5087147;28;20019;-68
2021/03/27 05:47:52;;;;;;;3.97;1.83;;;;;;;;;;5086758;28;20274;-68
2021/03/27 05:50:18;;;;;;;3.97;1.57;;;;;;;;;;5085484;28;20274;-68
2021/03/27 05:52:55;;;;;;;2.70;1.20;;;;;;;;;;5089550;28;20364;-68
2021/03/27 05:55:32;;;;;;;4.10;1.67;;;;;;;;;;5092032;28;20032;-68
2021/03/27 05:58:26;;;;;;;6.53;1.90;;;;;;;;;;5090634;28;20657;-68
2021/03/27 06:00:55;;;;;;;3.57;1.50;;;;;;;;;;5066523;28;20325;-68
2021/03/27 06:03:38;;;;;;;5.20;1.80;;;;;;;;;;5089161;28;20736;-68
2021/03/27 06:06:15;;;;;;;4.57;1.50;;;;;;;;;;5085167;28;20768;-68
2021/03/27 06:08:44;;;;;;;6.40;2.37;;;;;;;;;;5089897;28;20345;-68
2021/03/27 06:11:15;;;;;;;8.20;2.83;;;;;;;;;;5068490;28;20723;-68
2021/03/27 06:13:49;;;;;;;9.00;2.23;;;;;;;;;;5082583;28;20270;-68
2021/03/27 06:16:18;;;;;;;6.13;1.93;;;;;;;;;;5086584;28;20430;-68
2021/03/27 06:18:49;;;;;;;4.87;1.63;;;;;;;;;;5086525;28;20286;-68
2021/03/27 06:21:33;;;;;;;4.37;1.70;;;;;;;;;;5087743;28;20274;-68
2021/03/27 06:24:16;;;;;;;6.43;2.43;;;;;;;;;;5085342;28;20266;-68
2021/03/27 06:27:00;;;;;;;6.30;2.53;;;;;;;;;;5062504;28;20274;-68
2021/03/27 06:29:28;;;;;;;7.60;2.23;;;;;;;;;;5089436;28;20706;-68
2021/03/27 06:32:12;;;;;;;5.23;2.23;;;;;;;;;;5084793;28;20285;-68
2021/03/27 06:34:56;;;;;;;9.23;2.80;;;;;;;;;;5084191;28;20765;-68
2021/03/27 06:37:28;;;;;;;6.57;2.67;;;;;;;;;;5089315;28;20277;-68
2021/03/27 06:39:53;;;;;;;;;;;;;;;;;;5089216;28;20274;-68
2021/03/27 06:42:45;;;;;;;5.00;2.13;;;;;;;;;;5089382;28;19980;-68
2021/03/27 06:45:16;;;;;;;5.37;1.93;;;;;;;;;;5079567;28;20605;-69
2021/03/27 06:48:00;;;;;;;6.17;2.57;;;;;;;;;;5088238;28;20020;-69
2021/03/27 06:50:25;;;;;;;7.47;2.33;;;;;;;;;;5082119;28;20430;-68
2021/03/27 06:53:08;;;;;;;9.17;2.47;;;;;;;;;;5088973;28;20036;-68
2021/03/27 06:55:41;;;;;;;7.70;3.13;;;;;;;;;;5086088;28;20158;-68
2021/03/27 06:58:25;;;;;;;9.40;2.77;;;;;;;;;;5089918;28;20029;-68
2021/03/27 07:01:07;;;;;;;9.03;2.90;;;;;;;;;;5086963;28;20028;-68
2021/03/27 07:03:47;;;;;;;7.00;2.65;;;;;;;;;;5086405;28;20392;-69
2021/03/27 07:06:31;;;;;;;8.97;2.97;;;;;;;;;;5081464;28;20043;-69
2021/03/27 07:09:14;;;;;;;7.13;2.80;;;;;;;;;;5088367;28;20077;-68
2021/03/27 07:11:40;;;;;;;9.93;2.80;;;;;;;;;;5085492;28;20107;-68
2021/03/27 07:14:23;;;;;;;10.43;2.80;;;;;;;;;;5086904;28;20119;-68
2021/03/27 07:17:13;;;;;;;5.23;2.37;;;;;;;;;;5086477;28;20189;-68
2021/03/27 07:20:07;;;;;;;7.53;2.60;;;;;;;;;;5086147;28;20115;-68
2021/03/27 07:22:51;;;;;;;4.97;2.57;;;;;;;;;;5064509;28;20481;-68
2021/03/27 07:25:17;;;;;;;8.47;2.47;;;;;;;;;;5063899;28;20012;-68
2021/03/27 07:27:50;;;;;;;9.03;2.53;;;;;;;;;;5087467;28;20209;-68
2021/03/27 07:30:30;;;;;;;6.53;2.70;;;;;;;;;;5088667;28;20460;-68
2021/03/27 07:32:56;;;;;;;9.80;3.27;;;;;;;;;;5084498;28;20036;-68
2021/03/27 07:35:21;;;;;;;6.10;2.90;;;;;;;;;;5082923;28;20031;-68
2021/03/27 07:38:06;;;;;;;6.80;2.90;;;;;;;;;;5082728;28;20062;-68
2021/03/27 07:40:40;;;;;;;4.60;2.40;;;;;;;;;;5080400;28;20024;-68
2021/03/27 07:43:25;;;;;;;7.97;2.50;;;;;;;;;;5085282;28;20386;-68
2021/03/27 07:46:02;;;;;;;5.97;2.50;;;;;;;;;;5089207;28;20016;-68
2021/03/27 07:48:43;;;;;;;9.53;3.40;;;;;;;;;;5085318;28;20036;-68
2021/03/27 07:51:24;;;;;;;7.20;2.80;;;;;;;;;;5086125;28;20367;-68
2021/03/27 07:54:07;;;;;;;7.67;3.60;;;;;;;;;;5087488;28;20127;-69
2021/03/27 07:57:05;;;;;;;7.40;2.83;;;;;;;;;;5087187;28;20471;-68
2021/03/27 07:59:40;;;;;;;6.73;2.77;;;;;;;;;;5032191;28;20058;-68
2021/03/27 08:02:20;;;;;;;7.93;3.00;;;;;;;;;;5088427;28;20466;-68
2021/03/27 08:04:45;;;;;;;6.87;2.77;;;;;;;;;;5088713;28;20371;-68
2021/03/27 08:07:26;;;;;;;6.97;2.83;;;;;;;;;;5088951;28;20082;-68
2021/03/27 08:09:57;;;;;;;7.47;3.10;;;;;;;;;;5088805;28;20074;-69
2021/03/27 08:12:29;;;;;;;8.97;2.33;;;;;;;;;;5090850;28;20119;-69
2021/03/27 08:15:13;;;;;;;4.93;2.33;;;;;;;;;;5088136;28;20464;-68
2021/03/27 08:17:58;;;;;;;5.40;2.30;;;;;;;;;;5083643;28;20031;-69
2021/03/27 08:20:26;;;;;;;6.90;2.73;;;;;;;;;;5084000;28;20050;-68
2021/03/27 08:23:04;;;;;;;6.83;2.47;;;;;;;;;;5085577;28;20062;-69
2021/03/27 08:25:37;;;;;;;11.00;3.30;;;;;;;;;;5090554;28;20359;-68
2021/03/27 08:28:30;;;;;;;8.67;2.40;;;;;;;;;;5084518;28;20025;-68
2021/03/27 08:31:09;;;;;;;6.63;2.23;;;;;;;;;;5090735;28;20426;-68
2021/03/27 08:33:53;;;;;;;8.40;2.87;;;;;;;;;;5081485;28;20459;-68
2021/03/27 08:36:37;;;;;;;7.13;2.60;;;;;;;;;;5089921;28;20683;-69
2021/03/27 08:39:11;;;;;;;9.23;2.33;;;;;;;;;;5091013;28;20439;-69
2021/03/27 08:41:42;;;;;;;4.43;1.70;;;;;;;;;;5085779;28;20027;-68
2021/03/27 08:44:26;;;;;;;6.27;2.57;;;;;;;;;;5090512;28;20035;-69
2021/03/27 08:47:04;;;;;;;6.93;2.13;;;;;;;;;;5090437;28;20032;-68
2021/03/27 08:49:50;;;;;;;7.60;2.10;;;;;;;;;;5089926;28;20020;-68
2021/03/27 08:52:21;;;;;;;9.23;2.30;;;;;;;;;;5056123;28;20127;-68
2021/03/27 08:55:05;;;;;;;9.17;2.30;;;;;;;;;;5087847;28;20035;-68
2021/03/27 08:57:42;;;;;;;7.60;2.40;;;;;;;;;;5089469;28;20028;-68
2021/03/27 09:00:26;;;;;;;5.87;2.50;;;;;;;;;;5085284;28;20032;-68
2021/03/27 09:03:00;;;;;;;9.73;3.03;;;;;;;;;;5084826;28;21010;-68
2021/03/27 09:05:44;;;;;;;8.63;2.70;;;;;;;;;;5090741;28;20028;-68
2021/03/27 09:08:16;;;;;;;6.10;2.03;;;;;;;;;;5085347;28;20036;-68
2021/03/27 09:10:53;;;;;;;4.70;1.77;;;;;;;;;;5088793;28;20055;-68
2021/03/27 09:13:37;;;;;;;7.47;1.80;;;;;;;;;;5086847;28;20471;-68
2021/03/27 09:16:14;;;;;;;6.33;2.17;;;;;;;;;;5091109;28;20036;-68
2021/03/27 09:18:58;;;;;;;8.67;2.53;;;;;;;;;;5089779;28;20024;-68
2021/03/27 09:21:29;;;;;;;3.93;1.80;;;;;;;;;;5085869;28;20036;-68
2021/03/27 09:24:03;;;;;;;6.53;1.30;;;;;;;;;;5089346;28;20020;-68
2021/03/27 09:26:47;;;;;;;6.70;1.43;;;;;;;;;;5093557;28;20026;-68
2021/03/27 09:29:31;;;;;;;3.23;1.23;;;;;;;;;;5085789;28;20119;-68
2021/03/27 09:32:13;;;;;;;5.07;1.70;;;;;;;;;;5087956;28;20490;-68
2021/03/27 09:34:50;;;;;;;3.63;1.55;;;;;;;;;;5085938;28;20375;-68
2021/03/27 09:37:34;;;;;;;4.47;1.50;;;;;;;;;;5083841;28;20032;-68
2021/03/27 09:40:07;;;;;;;4.37;1.57;;;;;;;;;;5088709;28;20471;-68
2021/03/27 09:42:51;;;;;;;4.40;1.27;;;;;;;;;;5091764;28;20059;-68
2021/03/27 09:45:32;;;;;;;5.30;1.70;;;;;;;;;;5086036;28;20069;-68
2021/03/27 09:48:00;;;;;;;5.33;1.20;;;;;;;;;;5070173;28;20016;-68
2021/03/27 09:50:34;;;;;;;5.57;1.37;;;;;;;;;;5081160;28;20024;-68
2021/03/27 09:53:00;;;;;;;6.30;1.20;;;;;;;;;;5087698;28;20042;-68
2021/03/27 09:55:43;;;;;;;2.63;1.10;;;;;;;;;;5093526;28;20028;-68
2021/03/27 09:58:22;;;;;;;3.67;0.70;;;;;;;;;;5084045;28;20081;-67
2021/03/27 10:00:47;;;;;;;6.10;1.20;;;;;;;;;;5086742;28;20016;-68
2021/03/27 10:03:16;;;;;;;9.53;1.40;;;;;;;;;;5080571;28;20056;-68
2021/03/27 10:05:56;;;;;;;5.63;1.10;;;;;;;;;;5089222;28;20379;-68
2021/03/27 10:08:27;;;;;;;3.53;0.83;;;;;;;;;;5085468;28;20078;-68
2021/03/27 10:10:52;;;;;;;3.43;1.23;;;;;;;;;;5083517;28;20102;-68
2021/03/27 10:13:33;;;;;;;4.73;1.20;;;;;;;;;;5089411;28;20594;-68
2021/03/27 10:15:58;;;;;;;5.67;0.90;;;;;;;;;;5092526;28;20024;-67
2021/03/27 10:18:38;;;;;;;3.60;0.90;;;;;;;;;;5086127;28;20483;-68
2021/03/27 10:21:22;;;;;;;5.10;1.73;;;;;;;;;;5083564;28;20089;-67
2021/03/27 10:23:50;;;;;;;3.53;1.20;;;;;;;;;;5086591;28;20066;-68
2021/03/27 10:26:18;;;;;;;8.17;1.47;;;;;;;;;;5086248;28;20024;-68
2021/03/27 10:28:48;;;;;;;6.40;1.27;;;;;;;;;;5080857;28;20029;-68
2021/03/27 10:31:16;;;;;;;9.93;1.43;;;;;;;;;;5081748;28;20557;-68
2021/03/27 10:33:54;;;;;;;7.70;1.10;;;;;;;;;;5085551;28;20020;-68
2021/03/27 10:36:28;;;;;;;6.30;1.20;;;;;;;;;;5086780;28;20107;-68
2021/03/27 10:39:05;;;;;;;6.03;1.07;;;;;;;;;;5080869;28;20028;-68
2021/03/27 10:41:39;;;;;;;5.27;1.23;;;;;;;;;;5079426;28;20565;-68
2021/03/27 10:44:05;;;;;;;3.57;1.17;;;;;;;;;;5082203;28;20484;-68
2021/03/27 10:46:41;;;;;;;5.20;1.40;;;;;;;;;;5079635;28;20016;-68
2021/03/27 10:49:25;;;;;;;3.67;1.00;;;;;;;;;;5090509;28;20065;-68
2021/03/27 10:51:56;;;;;;;4.43;0.80;;;;;;;;;;5087005;28;20606;-68
2021/03/27 10:54:40;;;;;;;10.87;2.03;;;;;;;;;;5089344;28;20039;-68
2021/03/27 10:57:20;;;;;;;1.90;0.70;;;;;;;;;;5081220;28;20059;-67
2021/03/27 11:00:04;;;;;;;5.00;1.37;;;;;;;;;;5079528;28;20032;-67
2021/03/27 11:02:50;;;;;;;4.27;1.23;;;;;;;;;;5076172;28;20047;-68
2021/03/27 11:05:21;;;;;;;0.77;0.53;;;;;;;;;;5084959;28;20028;-68
2021/03/27 11:08:11;;;;;;;5.47;1.23;;;;;;;;;;5075710;28;20082;-68
2021/03/27 11:10:46;;;;;;;5.10;0.77;;;;;;;;;;5085843;28;20304;-68
2021/03/27 11:13:17;;;;;;;4.60;0.70;;;;;;;;;;5084262;28;20285;-68
2021/03/27 11:15:48;;;;;;;1.60;0.60;;;;;;;;;;5079520;28;20329;-68
2021/03/27 11:18:16;;;;;;;3.17;0.50;;;;;;;;;;5085741;28;20035;-68
2021/03/27 11:20:42;;;;;;;4.27;1.13;;;;;;;;;;5083513;28;20020;-68
2021/03/27 11:23:16;;;;;;;1.63;0.63;;;;;;;;;;5084360;28;20034;-68
2021/03/27 11:25:47;;;;;;;2.57;0.70;;;;;;;;;;5085266;28;20513;-68
2021/03/27 11:28:30;;;;;;;4.43;1.13;;;;;;;;;;5086138;28;20020;-68
2021/03/27 11:30:55;;;;;;;;;;;;;;;;;;5088311;28;20675;-68
2021/03/27 11:33:35;;;;;;;2.43;0.90;;;;;;;;;;5085720;28;20021;-68
2021/03/27 11:36:19;;;;;;;2.47;0.60;;;;;;;;;;5086509;28;20056;-68
2021/03/27 11:39:05;;;;;;;2.67;0.80;;;;;;;;;;5086855;28;20031;-67
2021/03/27 11:41:30;;;;;;;3.03;0.60;;;;;;;;;;5070764;28;20289;-67
2021/03/27 11:44:14;;;;;;;3.70;1.23;;;;;;;;;;5085003;28;20278;-68
2021/03/27 11:46:43;;;;;;;4.60;1.50;;;;;;;;;;5068156;28;20026;-68
2021/03/27 11:49:14;;;;;;;2.47;1.00;;;;;;;;;;5085711;28;20764;-68
2021/03/27 11:51:47;;;;;;;2.33;1.00;;;;;;;;;;5084835;28;20277;-68
2021/03/27 11:54:15;;;;;;;3.40;0.90;;;;;;;;;;5084657;28;20294;-68
2021/03/27 11:56:51;;;;;;;4.60;1.40;;;;;;;;;;5075327;28;20286;-68
2021/03/27 12:02:14;;;;;;;0.87;0.60;;;;;;;;;;5082115;28;20226;-68
2021/03/27 12:04:39;;;;;;;;;;;;;;;;;;5081977;28;20038;-68
2021/03/27 12:07:12;;;;;;;3.25;0.73;;;;;;;;;;5088553;28;19912;-68
2021/03/27 12:09:46;;;;;;;3.60;0.80;;;;;;;;;;5092113;28;20099;-68
2021/03/27 12:12:31;;;;;;;2.37;0.90;;;;;;;;;;5086093;28;20108;-68
2021/03/27 12:14:59;;;;;;;3.43;0.80;;;;;;;;;;5089084;28;20176;-68
2021/03/27 12:17:32;;;;;;;1.80;0.67;;;;;;;;;;5088322;28;20024;-68
2021/03/27 12:20:17;;;;;;;3.00;0.87;;;;;;;;;;5079190;28;20047;-68
2021/03/27 12:22:46;;;;;;;3.67;1.07;;;;;;;;;;5032594;28;20044;-68
2021/03/27 12:25:21;;;;;;;1.53;0.83;;;;;;;;;;5079087;28;20031;-68
2021/03/27 12:27:49;;;;;;;4.13;1.03;;;;;;;;;;5083773;28;20572;-68
2021/03/27 12:30:27;;;;;;;3.80;1.00;;;;;;;;;;5083385;28;20574;-68
2021/03/27 12:33:07;;;;;;;2.80;1.10;;;;;;;;;;5079813;28;20066;-68
2021/03/27 12:35:51;;;;;;;5.07;0.90;;;;;;;;;;5083036;28;20131;-68
2021/03/27 12:38:20;;;;;;;4.73;0.80;;;;;;;;;;5086657;28;20024;-68
2021/03/27 12:41:06;;;;;;;2.93;0.90;;;;;;;;;;5082587;28;20032;-68
2021/03/27 12:43:32;;;;;;;3.10;0.80;;;;;;;;;;5082480;28;20024;-68
2021/03/27 12:45:57;;;;;;;7.77;0.67;;;;;;;;;;5079718;28;20136;-69
2021/03/27 12:48:25;;;;;;;2.77;0.70;;;;;;;;;;5083250;28;20024;-68
2021/03/27 12:51:06;;;;;;;2.10;0.40;;;;;;;;;;5087453;28;20016;-68
2021/03/27 12:53:50;;;;;;;3.20;0.80;;;;;;;;;;5081402;28;20579;-68
2021/03/27 12:56:15;;;;;;;9.87;1.07;;;;;;;;;;5081731;28;20056;-68
2021/03/27 12:58:45;;;;;;;2.73;0.80;;;;;;;;;;5079745;28;20556;-68
2021/03/27 13:01:32;;;;;;;2.77;0.57;;;;;;;;;;5082657;28;20028;-68
2021/03/27 13:04:15;;;;;;;3.83;0.70;;;;;;;;;;5082156;28;20040;-68
2021/03/27 13:06:41;;;;;;;3.53;1.00;;;;;;;;;;5087581;28;20535;-68
2021/03/27 13:09:12;;;;;;;2.47;0.70;;;;;;;;;;5085544;28;20107;-68
2021/03/27 13:11:37;;;;;;;5.63;1.10;;;;;;;;;;5080234;28;20477;-68
2021/03/27 13:14:15;;;;;;;7.90;1.23;;;;;;;;;;5087663;28;20027;-69
2021/03/27 13:16:45;;;;;;;4.77;1.07;;;;;;;;;;5070793;28;20031;-68
2021/03/27 13:19:16;;;;;;;4.50;0.77;;;;;;;;;;5083705;28;20865;-68
2021/03/27 13:22:07;;;;;;;4.27;1.13;;;;;;;;;;5089773;28;20483;-69
2021/03/27 13:24:32;;;;;;;4.53;1.10;;;;;;;;;;5045869;28;20036;-68
2021/03/27 13:27:04;;;;;;;3.73;0.97;;;;;;;;;;5081867;28;20475;-68
2021/03/27 13:29:36;;;;;;;7.90;1.43;;;;;;;;;;5079873;28;20024;-68
2021/03/27 13:32:14;;;;;;;4.73;1.20;;;;;;;;;;5079817;28;20030;-68
2021/03/27 13:34:51;;;;;;;2.70;1.17;;;;;;;;;;5080132;28;20036;-68
2021/03/27 13:37:37;;;;;;;2.73;0.90;;;;;;;;;;5081287;28;20036;-68
2021/03/27 13:40:14;;;;;;;2.13;1.13;;;;;;;;;;5081623;28;20184;-68
2021/03/27 13:42:46;;;;;;;5.23;1.33;;;;;;;;;;5080874;28;20039;-68
2021/03/27 13:45:26;;;;;;;2.40;0.93;;;;;;;;;;5081144;28;20020;-68
2021/03/27 13:48:05;;;;;;;3.80;0.80;;;;;;;;;;5082805;28;20031;-67
2021/03/27 13:50:40;;;;;;;3.53;0.60;;;;;;;;;;5083231;28;20024;-68
2021/03/27 13:53:12;;;;;;;1.43;0.50;;;;;;;;;;5079744;28;20111;-67
2021/03/27 13:55:39;;;;;;;0.93;0.70;;;;;;;;;;5074923;28;20282;-68
2021/03/27 13:58:05;;;;;;;1.57;0.70;;;;;;;;;;5079621;28;20282;-68
2021/03/27 14:00:46;;;;;;;2.30;0.97;;;;;;;;;;5081586;28;20724;-67
2021/03/27 14:03:23;;;;;;;1.53;0.67;;;;;;;;;;5080319;28;20801;-68
2021/03/27 14:05:51;;;;;;;4.10;0.83;;;;;;;;;;5079527;28;20281;-68
2021/03/27 14:08:35;;;;;;;4.00;0.70;;;;;;;;;;5081232;28;20348;-68
2021/03/27 14:11:03;;;;;;;1.47;0.70;;;;;;;;;;5083246;28;20282;-68
2021/03/27 14:13:34;;;;;;;1.50;0.80;;;;;;;;;;5056560;28;20317;-68
2021/03/27 14:16:08;;;;;;;1.53;0.67;;;;;;;;;;5084176;28;20365;-68
2021/03/27 14:18:40;;;;;;;2.40;0.90;;;;;;;;;;5075755;28;20271;-68
2021/03/27 14:21:21;;;;;;;4.60;0.93;;;;;;;;;;5081507;28;20343;-68
2021/03/27 14:23:52;;;;;;;1.27;0.60;;;;;;;;;;5080676;28;20303;-68
2021/03/27 14:26:24;;;;;;;7.23;0.80;;;;;;;;;;5060718;28;20282;-69
2021/03/27 14:28:50;;;;;;;1.50;0.90;;;;;;;;;;5075733;28;20284;-69
2021/03/27 14:31:18;;;;;;;1.20;0.60;;;;;;;;;;5075046;28;20395;-69
2021/03/27 14:34:05;;;;;;;3.70;0.67;;;;;;;;;;5074132;28;20039;-69
2021/03/27 14:36:30;;;;;;;0.83;0.40;;;;;;;;;;5058140;28;20024;-69
2021/03/27 14:39:08;;;;;;;1.63;0.60;;;;;;;;;;5079008;28;20072;-69
2021/03/27 14:41:44;;;;;;;1.77;0.70;;;;;;;;;;5080204;28;20075;-69
2021/03/27 14:44:24;;;;;;;1.20;0.60;;;;;;;;;;5080818;28;20019;-69
2021/03/27 14:47:05;;;;;;;2.87;0.60;;;;;;;;;;5079907;28;20012;-69
2021/03/27 14:49:48;;;;;;;2.57;0.60;;;;;;;;;;5080039;28;20428;-69
2021/03/27 14:52:30;;;;;;;0.97;0.50;;;;;;;;;;5076411;28;20020;-69
2021/03/27 14:55:05;;;;;;;3.80;0.70;;;;;;;;;;5076370;28;20028;-69
2021/03/27 14:57:31;;;;;;;1.10;0.60;;;;;;;;;;5075241;28;20093;-68
2021/03/27 15:00:03;;;;;;;3.07;0.93;;;;;;;;;;5080635;28;20063;-68
2021/03/27 15:02:28;;;;;;;1.38;0.50;;;;;;;;;;5080432;28;20067;-69
2021/03/27 15:05:00;;;;;;;2.27;0.87;;;;;;;;;;5076408;28;20144;-69
2021/03/27 15:07:27;;;;;;;1.43;0.83;;;;;;;;;;5077580;28;20057;-69
2021/03/27 15:10:10;;;;;;;1.60;0.60;;;;;;;;;;5075709;28;20037;-69
2021/03/27 15:12:39;;;;;;;1.67;0.67;;;;;;;;;;5078162;28;20545;-69
2021/03/27 15:15:07;;;;;;;3.60;0.70;;;;;;;;;;5083022;28;20028;-69
2021/03/27 15:17:35;;;;;;;3.63;0.90;;;;;;;;;;5091961;28;20134;-69
2021/03/27 15:20:04;;;;;;;7.27;0.80;;;;;;;;;;5084235;28;20090;-69
2021/03/27 15:22:51;;;;;;;0.83;0.50;;;;;;;;;;5085400;28;20040;-69
2021/03/27 15:28:18;;;;;;;2.73;0.67;;;;;;;;;;5079804;28;20058;-69
2021/03/27 15:30:45;;;;;;;1.93;0.77;;;;;;;;;;5079268;28;20038;-68
2021/03/27 15:33:16;;;;;;;1.80;0.90;;;;;;;;;;5087837;28;20024;-68
2021/03/27 15:36:01;;;;;;;2.87;0.70;;;;;;;;;;5082344;28;20032;-68